createdAt,value
2018-08-13T00:01:30.958Z,35.36
2018-08-13T00:03:59.374Z,35.61
2018-08-13T00:06:27.722Z,34.83
2018-08-13T00:08:56.010Z,35.27
2018-08-13T00:11:24.365Z,34.85
2018-08-13T00:13:52.630Z,35.44
2018-08-13T00:16:20.915Z,35.93
2018-08-13T00:18:55.882Z,35.02
2018-08-13T00:21:24.214Z,35.65
2018-08-13T00:23:52.487Z,35.08
2018-08-13T00:26:20.759Z,35.12
2018-08-13T00:28:49.026Z,35.14
2018-08-13T00:31:17.385Z,35.86
2018-08-13T00:33:45.764Z,35.73
2018-08-13T00:36:14.086Z,35.91
2018-08-13T00:38:42.367Z,35.18
2018-08-13T00:41:10.710Z,35.18
2018-08-13T00:43:39.002Z,35.60
2018-08-13T00:46:07.358Z,35.19
2018-08-13T00:48:35.714Z,35.34
2018-08-13T00:51:04.038Z,35.52
2018-08-13T00:53:32.370Z,35.00
2018-08-13T00:56:00.670Z,35.46
2018-08-13T00:58:28.995Z,36.30
2018-08-13T01:00:57.321Z,36.05
2018-08-13T01:03:25.642Z,36.29
2018-08-13T01:05:53.956Z,36.01
2018-08-13T01:08:22.302Z,35.34
2018-08-13T01:10:50.626Z,35.45
2018-08-13T01:13:18.978Z,36.06
2018-08-13T01:15:47.262Z,36.30
2018-08-13T01:18:18.393Z,36.36
2018-08-13T01:20:46.705Z,36.40
2018-08-13T01:23:15.073Z,36.61
2018-08-13T01:25:43.380Z,36.63
2018-08-13T01:28:11.729Z,36.18
2018-08-13T01:30:40.109Z,36.53
2018-08-13T01:33:08.442Z,36.94
2018-08-13T01:35:36.701Z,37.05
2018-08-13T01:38:05.146Z,36.28
2018-08-13T01:40:33.418Z,36.28
2018-08-13T01:43:01.792Z,36.37
2018-08-13T01:45:30.059Z,36.64
2018-08-13T01:47:58.451Z,36.80
2018-08-13T01:50:26.754Z,36.07
2018-08-13T01:52:55.130Z,35.83
2018-08-13T01:55:23.559Z,37.05
2018-08-13T01:57:52.055Z,36.89
2018-08-13T02:00:20.386Z,36.74
2018-08-13T02:02:48.714Z,37.35
2018-08-13T02:05:17.031Z,36.71
2018-08-13T02:07:45.410Z,36.50
2018-08-13T02:10:13.962Z,36.59
2018-08-13T02:12:42.574Z,36.90
2018-08-13T02:15:10.954Z,37.49
2018-08-13T02:17:39.286Z,36.83
2018-08-13T02:20:08.726Z,37.01
2018-08-13T02:22:37.362Z,37.64
2018-08-13T02:25:06.185Z,37.02
2018-08-13T02:27:34.534Z,37.07
2018-08-13T02:30:03.123Z,37.88
2018-08-13T02:32:31.478Z,37.17
2018-08-13T02:34:59.851Z,38.01
2018-08-13T02:37:28.178Z,37.59
2018-08-13T02:39:56.556Z,38.05
2018-08-13T02:42:24.974Z,37.85
2018-08-13T02:44:53.271Z,37.49
2018-08-13T02:47:21.723Z,37.45
2018-08-13T02:49:50.076Z,37.80
2018-08-13T02:52:18.399Z,37.46
2018-08-13T02:54:46.744Z,37.52
2018-08-13T02:57:15.039Z,37.49
2018-08-13T02:59:43.379Z,37.79
2018-08-13T03:02:11.867Z,38.51
2018-08-13T03:04:40.264Z,38.75
2018-08-13T03:07:08.552Z,38.85
2018-08-13T03:09:36.939Z,38.06
2018-08-13T03:12:05.486Z,38.37
2018-08-13T03:14:33.915Z,38.99
2018-08-13T03:17:02.234Z,38.09
2018-08-13T03:19:30.610Z,38.36
2018-08-13T03:21:58.970Z,38.04
2018-08-13T03:24:27.759Z,38.26
2018-08-13T03:26:56.090Z,38.04
2018-08-13T03:29:24.418Z,38.68
2018-08-13T03:31:52.779Z,38.52
2018-08-13T03:34:21.230Z,38.34
2018-08-13T03:36:49.551Z,38.13
2018-08-13T03:39:17.881Z,38.57
2018-08-13T03:41:46.194Z,37.74
2018-08-13T03:44:14.539Z,38.30
2018-08-13T03:46:42.950Z,38.91
2018-08-13T03:49:12.355Z,38.32
2018-08-13T03:51:41.447Z,38.09
2018-08-13T03:54:09.942Z,37.80
2018-08-13T03:56:38.302Z,37.81
2018-08-13T03:59:06.675Z,38.02
2018-08-13T04:01:35.094Z,38.32
2018-08-13T04:04:03.414Z,37.87
2018-08-13T04:06:31.771Z,37.63
2018-08-13T04:09:00.234Z,37.74
2018-08-13T04:11:28.585Z,37.85
2018-08-13T04:13:56.930Z,38.46
2018-08-13T04:16:25.234Z,38.45
2018-08-13T04:18:53.534Z,37.85
2018-08-13T04:21:21.806Z,38.62
2018-08-13T04:23:50.109Z,37.85
2018-08-13T04:26:18.374Z,37.84
2018-08-13T04:28:46.699Z,37.86
2018-08-13T04:31:14.982Z,37.80
2018-08-13T04:33:43.249Z,37.82
2018-08-13T04:36:11.655Z,38.61
2018-08-13T04:38:40.066Z,38.45
2018-08-13T04:41:08.432Z,38.81
2018-08-13T04:43:36.753Z,38.77
2018-08-13T04:46:05.046Z,39.78
2018-08-13T04:48:34.119Z,39.61
2018-08-13T04:51:02.510Z,38.29
2018-08-13T04:53:30.811Z,39.22
2018-08-13T04:55:59.162Z,39.43
2018-08-13T04:58:27.434Z,38.67
2018-08-13T05:00:55.750Z,39.16
2018-08-13T05:03:24.083Z,40.07
2018-08-13T05:05:52.355Z,40.10
2018-08-13T05:08:20.618Z,40.02
2018-08-13T05:10:48.915Z,40.86
2018-08-13T05:13:17.203Z,40.82
2018-08-13T05:15:45.606Z,40.29
2018-08-13T05:18:13.849Z,40.97
2018-08-13T05:20:42.122Z,41.06
2018-08-13T05:23:10.374Z,40.19
2018-08-13T05:25:38.686Z,41.33
2018-08-13T05:28:07.015Z,40.45
2018-08-13T05:30:36.307Z,40.47
2018-08-13T05:33:04.645Z,41.30
2018-08-13T05:35:33.041Z,41.02
2018-08-13T05:38:01.326Z,40.49
2018-08-13T05:40:29.671Z,40.74
2018-08-13T05:42:57.990Z,40.73
2018-08-13T05:45:26.331Z,41.44
2018-08-13T05:47:54.685Z,42.02
2018-08-13T05:50:23.039Z,42.20
2018-08-13T05:52:51.391Z,42.91
2018-08-13T05:55:19.682Z,43.74
2018-08-13T05:57:47.954Z,42.78
2018-08-13T06:00:16.266Z,43.64
2018-08-13T06:02:44.546Z,44.08
2018-08-13T06:05:13.451Z,44.18
2018-08-13T06:07:42.238Z,44.61
2018-08-13T06:10:11.578Z,45.28
2018-08-13T06:12:40.402Z,45.93
2018-08-13T06:15:10.450Z,45.47
2018-08-13T06:17:39.548Z,45.54
2018-08-13T06:20:09.215Z,47.10
2018-08-13T06:22:37.679Z,47.10
2018-08-13T06:25:06.195Z,47.31
2018-08-13T06:27:34.535Z,46.93
2018-08-13T06:30:02.921Z,48.12
2018-08-13T06:32:31.247Z,49.03
2018-08-13T06:34:59.563Z,48.66
2018-08-13T06:37:27.880Z,49.78
2018-08-13T06:39:56.191Z,50.04
2018-08-13T06:42:24.479Z,49.63
2018-08-13T06:44:52.758Z,48.51
2018-08-13T06:47:21.142Z,48.52
2018-08-13T06:49:49.476Z,48.55
2018-08-13T06:52:17.790Z,47.80
2018-08-13T06:54:46.195Z,47.13
2018-08-13T06:57:14.539Z,47.00
2018-08-13T06:59:42.902Z,47.42
2018-08-13T07:02:12.294Z,46.48
2018-08-13T07:04:40.602Z,47.30
2018-08-13T07:07:08.998Z,47.08
2018-08-13T07:09:37.297Z,46.73
2018-08-13T07:12:05.753Z,46.36
2018-08-13T07:14:34.072Z,47.06
2018-08-13T07:17:02.406Z,46.09
2018-08-13T07:19:30.756Z,46.04
2018-08-13T07:21:59.154Z,46.32
2018-08-13T07:24:27.490Z,45.63
2018-08-13T07:26:55.874Z,46.17
2018-08-13T07:29:24.298Z,46.28
2018-08-13T07:31:52.621Z,45.35
2018-08-13T07:34:20.969Z,45.89
2018-08-13T07:36:49.346Z,45.37
2018-08-13T07:39:17.675Z,45.71
2018-08-13T07:41:46.094Z,46.19
2018-08-13T07:44:15.406Z,45.42
2018-08-13T07:46:46.618Z,46.02
2018-08-13T07:49:15.818Z,45.94
2018-08-13T07:51:44.243Z,46.00
2018-08-13T07:54:12.418Z,45.90
2018-08-13T07:56:40.726Z,45.75
2018-08-13T07:59:09.042Z,45.92
2018-08-13T08:01:37.310Z,45.75
2018-08-13T08:04:05.618Z,45.37
2018-08-13T08:06:33.895Z,45.64
2018-08-13T08:09:02.267Z,45.65
2018-08-13T08:11:30.538Z,45.65
2018-08-13T08:13:58.814Z,45.05
2018-08-13T08:16:27.113Z,45.76
2018-08-13T08:18:55.398Z,45.47
2018-08-13T08:21:23.772Z,44.99
2018-08-13T08:23:52.035Z,45.21
2018-08-13T08:26:20.354Z,45.03
2018-08-13T08:28:48.663Z,46.11
2018-08-13T08:31:17.002Z,45.86
2018-08-13T08:33:45.262Z,45.59
2018-08-13T08:36:13.735Z,45.58
2018-08-13T08:38:43.007Z,45.93
2018-08-13T08:41:11.339Z,46.28
2018-08-13T08:43:39.778Z,46.05
2018-08-13T08:46:08.290Z,46.33
2018-08-13T08:48:36.658Z,46.39
2018-08-13T08:51:05.099Z,46.44
2018-08-13T08:53:33.528Z,46.04
2018-08-13T08:56:01.974Z,47.09
2018-08-13T08:58:30.419Z,46.95
2018-08-13T09:00:58.830Z,46.53
2018-08-13T09:03:27.212Z,46.43
2018-08-13T09:05:55.673Z,47.38
2018-08-13T09:08:24.159Z,46.83
2018-08-13T09:10:52.590Z,47.31
2018-08-13T09:13:21.012Z,47.86
2018-08-13T09:15:49.502Z,47.92
2018-08-13T09:18:29.066Z,47.91
2018-08-13T09:21:08.638Z,47.25
2018-08-13T09:23:48.225Z,47.23
2018-08-13T09:26:27.646Z,47.94
2018-08-13T09:29:07.112Z,47.97
2018-08-13T09:32:15.366Z,47.67
2018-08-13T09:34:55.886Z,47.91
2018-08-13T09:37:24.338Z,47.44
2018-08-13T09:39:53.079Z,47.60
2018-08-13T09:42:21.675Z,47.83
2018-08-13T09:44:50.186Z,47.83
2018-08-13T09:47:21.409Z,47.97
2018-08-13T09:49:49.882Z,47.96
2018-08-13T09:52:18.470Z,47.36
2018-08-13T09:54:46.906Z,48.11
2018-08-13T09:57:15.298Z,48.14
2018-08-13T09:59:43.636Z,48.26
2018-08-13T10:02:12.065Z,47.80
2018-08-13T10:04:40.386Z,48.13
2018-08-13T10:07:08.891Z,48.59
2018-08-13T10:09:37.373Z,48.48
2018-08-13T10:12:05.921Z,48.53
2018-08-13T10:14:34.283Z,49.10
2018-08-13T10:17:02.630Z,48.19
2018-08-13T10:19:31.047Z,48.49
2018-08-13T10:21:59.571Z,49.12
2018-08-13T10:24:28.234Z,48.83
2018-08-13T10:26:56.847Z,49.04
2018-08-13T10:29:25.774Z,49.05
2018-08-13T10:31:54.118Z,48.04
2018-08-13T10:34:22.580Z,48.78
2018-08-13T10:36:50.990Z,48.86
2018-08-13T10:39:19.326Z,49.17
2018-08-13T10:41:47.773Z,48.78
2018-08-13T10:44:16.151Z,49.60
2018-08-13T10:46:44.603Z,49.10
2018-08-13T10:49:13.031Z,50.09
2018-08-13T10:51:41.466Z,49.65
2018-08-13T10:54:09.847Z,49.33
2018-08-13T10:56:38.170Z,49.68
2018-08-13T10:59:06.547Z,50.56
2018-08-13T11:01:35.113Z,50.22
2018-08-13T11:04:03.527Z,50.49
2018-08-13T11:06:31.918Z,49.89
2018-08-13T11:09:00.503Z,50.52
2018-08-13T11:11:28.886Z,50.30
2018-08-13T11:13:57.294Z,49.91
2018-08-13T11:16:25.675Z,50.26
2018-08-13T11:18:54.271Z,49.89
2018-08-13T11:21:22.735Z,50.85
2018-08-13T11:23:51.238Z,51.01
2018-08-13T11:26:19.715Z,49.92
2018-08-13T11:28:48.140Z,50.00
2018-08-13T11:31:16.615Z,50.28
2018-08-13T11:33:45.131Z,50.64
2018-08-13T11:36:13.546Z,49.96
2018-08-13T11:38:42.023Z,50.48
2018-08-13T11:41:10.376Z,50.11
2018-08-13T11:43:38.754Z,50.01
2018-08-13T11:46:07.098Z,51.01
2018-08-13T11:48:35.682Z,50.64
2018-08-13T11:51:04.114Z,50.35
2018-08-13T11:53:32.557Z,50.86
2018-08-13T11:56:01.544Z,50.52
2018-08-13T11:58:29.935Z,50.89
2018-08-13T12:00:58.262Z,51.91
2018-08-13T12:03:26.659Z,55.15
2018-08-13T12:05:55.020Z,55.15
2018-08-13T12:08:23.477Z,55.79
2018-08-13T12:10:51.800Z,56.13
2018-08-13T12:13:20.161Z,55.87
2018-08-13T12:15:48.535Z,55.71
2018-08-13T12:18:16.846Z,56.42
2018-08-13T12:20:45.198Z,56.20
2018-08-13T12:23:13.583Z,56.58
2018-08-13T12:25:41.967Z,56.09
2018-08-13T12:28:10.298Z,57.17
2018-08-13T12:30:38.731Z,57.04
2018-08-13T12:33:07.090Z,56.71
2018-08-13T12:35:35.459Z,57.06
2018-08-13T12:38:03.916Z,56.44
2018-08-13T12:40:32.301Z,56.72
2018-08-13T12:43:00.711Z,55.83
2018-08-13T12:45:29.130Z,55.37
2018-08-13T12:47:57.532Z,55.92
2018-08-13T12:50:25.955Z,55.12
2018-08-13T12:52:54.315Z,55.50
2018-08-13T12:55:22.862Z,54.97
2018-08-13T12:57:51.367Z,54.47
2018-08-13T13:00:26.303Z,54.53
2018-08-13T13:02:54.674Z,55.25
2018-08-13T13:05:23.058Z,53.94
2018-08-13T13:07:51.382Z,54.04
2018-08-13T13:10:19.775Z,54.11
2018-08-13T13:12:48.111Z,54.06
2018-08-13T13:15:19.147Z,53.74
2018-08-13T13:17:47.722Z,54.73
2018-08-13T13:20:19.150Z,53.84
2018-08-13T13:22:48.046Z,53.92
2018-08-13T13:25:16.643Z,53.49
2018-08-13T13:27:45.095Z,54.20
2018-08-13T13:30:14.780Z,54.22
2018-08-13T13:32:43.354Z,54.20
2018-08-13T13:35:13.195Z,53.37
2018-08-13T13:37:41.519Z,53.84
2018-08-13T13:40:11.860Z,54.15
2018-08-13T13:42:40.398Z,54.10
2018-08-13T13:45:10.007Z,53.92
2018-08-13T13:47:38.630Z,53.08
2018-08-13T13:50:08.431Z,53.46
2018-08-13T13:52:36.786Z,53.50
2018-08-13T13:55:05.474Z,53.10
2018-08-13T13:57:33.755Z,53.49
2018-08-13T14:00:02.207Z,53.37
2018-08-13T14:02:30.486Z,53.82
2018-08-13T14:04:58.902Z,53.56
2018-08-13T14:07:27.194Z,53.20
2018-08-13T14:09:55.487Z,52.93
2018-08-13T14:12:23.834Z,52.83
2018-08-13T14:14:52.150Z,53.33
2018-08-13T14:17:20.536Z,54.63
2018-08-13T14:19:48.850Z,54.23
2018-08-13T14:22:17.206Z,54.31
2018-08-13T14:24:45.509Z,53.84
2018-08-13T14:27:13.863Z,54.71
2018-08-13T14:29:42.225Z,53.87
2018-08-13T14:32:10.615Z,54.18
2018-08-13T14:34:39.004Z,53.38
2018-08-13T14:37:07.437Z,53.96
2018-08-13T14:39:35.764Z,53.84
2018-08-13T14:42:04.111Z,53.28
2018-08-13T14:44:32.428Z,53.67
2018-08-13T14:47:00.830Z,52.62
2018-08-13T14:49:29.191Z,52.95
2018-08-13T14:51:57.623Z,53.41
2018-08-13T14:54:25.928Z,52.03
2018-08-13T14:56:54.381Z,52.02
2018-08-13T14:59:22.716Z,53.06
2018-08-13T15:01:51.079Z,52.16
2018-08-13T15:04:20.071Z,51.93
2018-08-13T15:06:48.435Z,52.51
2018-08-13T15:09:16.735Z,51.80
2018-08-13T15:11:45.115Z,51.59
2018-08-13T15:14:14.259Z,51.71
2018-08-13T15:16:42.612Z,52.86
2018-08-13T15:19:11.672Z,51.77
2018-08-13T15:21:40.068Z,51.74
2018-08-13T15:24:08.506Z,52.03
2018-08-13T15:26:36.794Z,51.76
2018-08-13T15:29:05.106Z,52.22
2018-08-13T15:31:33.526Z,52.11
2018-08-13T15:34:01.951Z,51.55
2018-08-13T15:36:30.323Z,52.47
2018-08-13T15:38:58.647Z,51.55
2018-08-13T15:41:27.001Z,51.97
2018-08-13T15:43:55.353Z,51.55
2018-08-13T15:46:23.811Z,51.84
2018-08-13T15:48:52.561Z,51.57
2018-08-13T15:51:20.848Z,51.28
2018-08-13T15:53:49.126Z,51.96
2018-08-13T15:56:17.757Z,51.04
2018-08-13T15:58:46.123Z,51.94
2018-08-13T16:01:14.438Z,51.40
2018-08-13T16:03:42.725Z,51.61
2018-08-13T16:06:11.135Z,51.17
2018-08-13T16:08:39.586Z,51.93
2018-08-13T16:11:07.919Z,51.68
2018-08-13T16:13:36.254Z,52.63
2018-08-13T16:16:04.595Z,51.64
2018-08-13T16:18:32.983Z,51.52
2018-08-13T16:21:01.459Z,51.87
2018-08-13T16:23:29.767Z,52.23
2018-08-13T16:25:58.135Z,52.29
2018-08-13T16:28:26.500Z,51.58
2018-08-13T16:30:54.903Z,52.51
2018-08-13T16:33:23.234Z,51.45
2018-08-13T16:35:51.570Z,52.07
2018-08-13T16:38:20.594Z,51.64
2018-08-13T16:40:48.883Z,51.30
2018-08-13T16:43:17.201Z,51.43
2018-08-13T16:45:45.627Z,51.13
2018-08-13T16:48:14.044Z,51.62
2018-08-13T16:50:42.398Z,51.22
2018-08-13T16:53:10.867Z,51.63
2018-08-13T16:55:39.364Z,51.02
2018-08-13T16:58:07.813Z,50.91
2018-08-13T17:00:36.178Z,51.92
2018-08-13T17:03:04.597Z,50.72
2018-08-13T17:05:34.259Z,51.07
2018-08-13T17:08:02.743Z,51.09
2018-08-13T17:10:31.154Z,50.93
2018-08-13T17:12:59.754Z,51.51
2018-08-13T17:15:29.761Z,51.81
2018-08-13T17:17:59.348Z,50.97
2018-08-13T17:20:29.411Z,50.54
2018-08-13T17:22:57.978Z,50.65
2018-08-13T17:25:26.555Z,51.31
2018-08-13T17:27:55.022Z,51.52
2018-08-13T17:30:25.283Z,51.50
2018-08-13T17:32:55.569Z,51.33
2018-08-13T17:35:27.839Z,51.96
2018-08-13T17:37:56.283Z,51.43
2018-08-13T17:40:25.033Z,51.85
2018-08-13T17:42:55.040Z,51.93
2018-08-13T17:45:23.816Z,51.73
2018-08-13T17:47:52.298Z,51.10
2018-08-13T17:50:21.507Z,51.35
2018-08-13T17:52:49.998Z,51.03
2018-08-13T17:55:18.622Z,50.47
2018-08-13T17:57:47.172Z,50.47
2018-08-13T18:00:18.702Z,50.47
2018-08-13T18:02:47.113Z,51.03
2018-08-13T18:05:17.546Z,50.86
2018-08-13T18:07:46.215Z,50.38
2018-08-13T18:10:18.256Z,50.24
2018-08-13T18:12:46.676Z,50.33
2018-08-13T18:15:18.996Z,51.20
2018-08-13T18:17:47.811Z,51.15
2018-08-13T18:20:16.139Z,50.43
2018-08-13T18:22:44.690Z,51.25
2018-08-13T18:25:13.801Z,51.17
2018-08-13T18:27:43.282Z,51.21
2018-08-13T18:30:14.274Z,51.38
2018-08-13T18:32:42.615Z,50.59
2018-08-13T18:35:11.162Z,50.44
2018-08-13T18:37:39.522Z,50.46
2018-08-13T18:40:10.326Z,51.23
2018-08-13T18:42:38.637Z,51.28
2018-08-13T18:45:07.869Z,51.45
2018-08-13T18:47:36.219Z,50.78
2018-08-13T18:50:06.044Z,51.27
2018-08-13T18:52:34.321Z,50.99
2018-08-13T18:55:02.811Z,51.91
2018-08-13T18:57:31.167Z,51.62
2018-08-13T18:59:59.609Z,52.92
2018-08-13T19:02:27.990Z,52.17
2018-08-13T19:04:56.459Z,53.37
2018-08-13T19:07:24.912Z,52.67
2018-08-13T19:09:53.273Z,53.19
2018-08-13T19:12:21.710Z,53.18
2018-08-13T19:14:50.288Z,53.76
2018-08-13T19:17:18.714Z,54.95
2018-08-13T19:19:47.402Z,55.98
2018-08-13T19:22:15.850Z,53.85
2018-08-13T19:24:44.176Z,54.01
2018-08-13T19:27:12.510Z,53.45
2018-08-13T19:29:40.956Z,53.34
2018-08-13T19:32:09.351Z,54.08
2018-08-13T19:34:37.771Z,53.02
2018-08-13T19:37:06.255Z,53.90
2018-08-13T19:39:34.699Z,52.94
2018-08-13T19:42:03.081Z,53.83
2018-08-13T19:44:31.471Z,53.03
2018-08-13T19:47:00.094Z,52.90
2018-08-13T19:49:28.431Z,52.90
2018-08-13T19:51:56.843Z,53.61
2018-08-13T19:54:25.179Z,52.86
2018-08-13T19:56:53.551Z,53.13
2018-08-13T19:59:21.958Z,53.27
2018-08-13T20:01:50.279Z,52.53
2018-08-13T20:04:18.579Z,52.18
2018-08-13T20:06:47.000Z,53.09
2018-08-13T20:09:15.693Z,52.44
2018-08-13T20:11:44.194Z,52.78
2018-08-13T20:14:12.527Z,52.51
2018-08-13T20:16:40.857Z,52.39
2018-08-13T20:19:09.304Z,52.60
2018-08-13T20:21:37.607Z,52.43
2018-08-13T20:24:05.930Z,52.55
2018-08-13T20:26:34.328Z,53.17
2018-08-13T20:29:04.367Z,52.22
2018-08-13T20:31:33.450Z,52.93
2018-08-13T20:34:01.775Z,53.05
2018-08-13T20:36:30.172Z,52.61
2018-08-13T20:38:58.572Z,52.43
2018-08-13T20:41:27.134Z,52.44
2018-08-13T20:43:55.612Z,51.57
2018-08-13T20:46:23.962Z,51.40
2018-08-13T20:48:52.352Z,52.13
2018-08-13T20:51:20.696Z,51.45
2018-08-13T20:53:49.241Z,52.02
2018-08-13T20:56:17.751Z,51.08
2018-08-13T20:58:46.236Z,50.99
2018-08-13T21:01:14.704Z,51.81
2018-08-13T21:03:43.185Z,51.39
2018-08-13T21:06:11.427Z,51.01
2018-08-13T21:08:39.835Z,51.71
2018-08-13T21:11:08.249Z,50.80
2018-08-13T21:13:36.558Z,51.29
2018-08-13T21:16:05.737Z,50.94
2018-08-13T21:18:33.999Z,50.82
2018-08-13T21:21:02.303Z,51.23
2018-08-13T21:23:30.679Z,51.49
2018-08-13T21:25:59.404Z,51.55
2018-08-13T21:28:27.683Z,50.99
2018-08-13T21:30:55.992Z,51.10
2018-08-13T21:33:24.368Z,50.54
2018-08-13T21:35:52.676Z,50.56
2018-08-13T21:38:21.002Z,50.29
2018-08-13T21:40:49.383Z,50.54
2018-08-13T21:43:17.686Z,51.28
2018-08-13T21:45:46.039Z,50.95
2018-08-13T21:48:14.450Z,50.42
2018-08-13T21:50:42.855Z,50.54
2018-08-13T21:53:11.245Z,51.25
2018-08-13T21:55:39.690Z,50.97
2018-08-13T21:58:08.050Z,50.40
2018-08-13T22:00:41.814Z,50.34
2018-08-13T22:03:10.690Z,50.66
2018-08-13T22:05:39.118Z,50.82
2018-08-13T22:08:08.262Z,50.39
2018-08-13T22:10:36.675Z,50.45
2018-08-13T22:13:05.174Z,51.13
2018-08-13T22:15:33.883Z,50.37
2018-08-13T22:18:07.255Z,50.87
2018-08-13T22:20:36.547Z,50.41
2018-08-13T22:23:06.351Z,51.03
2018-08-13T22:25:41.532Z,50.31
2018-08-13T22:28:10.707Z,51.00
2018-08-13T22:30:39.159Z,50.28
2018-08-13T22:33:08.384Z,51.09
2018-08-13T22:35:36.792Z,50.97
2018-08-13T22:38:05.515Z,50.61
2018-08-13T22:40:33.880Z,50.26
2018-08-13T22:43:02.305Z,50.25
2018-08-13T22:45:30.662Z,50.20
2018-08-13T22:47:59.007Z,50.31
2018-08-13T22:50:27.373Z,51.03
2018-08-13T22:52:55.722Z,50.90
2018-08-13T22:55:24.075Z,50.96
2018-08-13T22:57:52.472Z,51.01
2018-08-13T23:00:21.328Z,51.05
2018-08-13T23:02:50.486Z,50.32
2018-08-13T23:05:22.981Z,50.14
2018-08-13T23:07:51.363Z,49.93
2018-08-13T23:10:21.039Z,51.05
2018-08-13T23:12:50.657Z,50.97
2018-08-13T23:15:19.290Z,51.04
2018-08-13T23:17:47.799Z,50.99
2018-08-13T23:20:19.031Z,50.14
2018-08-13T23:22:49.859Z,50.91
2018-08-13T23:25:18.690Z,50.98
2018-08-13T23:27:48.000Z,50.17
2018-08-13T23:30:16.631Z,50.09
2018-08-13T23:32:46.507Z,50.43
2018-08-13T23:35:15.383Z,50.20
2018-08-13T23:37:43.821Z,50.18
2018-08-13T23:40:12.195Z,50.87
2018-08-13T23:42:40.543Z,50.85
2018-08-13T23:45:10.764Z,50.73
2018-08-13T23:47:39.129Z,50.89
2018-08-13T23:50:09.063Z,50.32
2018-08-13T23:52:37.987Z,50.12
2018-08-13T23:55:07.365Z,50.80
2018-08-13T23:57:35.684Z,50.31
